Current | Forecast
Updated: 6:00 PM CEST on October 19, 2017
Observed at Leon, Spain
Temperature 12°C
Humidity 67%
Dew Point 6°C
Wind SW at 7 km/h
Pressure 1014 hPa (Rising)
Conditions Mostly Cloudy
Visibility 10.0 kilometers
UV 1 out of 16
Clouds Mostly Cloudy (BKN) : 731 m
Yesterday's Maximum 13°C
Yesterday's Minimum 7°C approx.
Yesterday's Heating Degree Days 15 approx.
Sunrise8:38 AM CEST
Sunset7:30 PM CEST
Moon Rise8:01 AM CEST
Moon Set7:46 PM CEST
Moon PhaseMoon Phase
Waning Crescent
Raw METARMETAR LELN 191600Z 22004KT 190V250 9999 BKN024 12/06 Q1014


Monday
. High: 62° F.
Tuesday
. High: 62° F.
Wednesday
. High: 53° F.
Thursday
. High: 60° F.
Friday
. High: 69° F.
Saturday
. High: 71° F.
Sunday
. High: 69° F.
Monday
. High: 78° F.

Click here for Marine Information
Scientific forecaster discussion (NWS)

Units: English | Metric

Find the Weather for any City, State or Zipcode, or Country:

U.S. State List | Severe Weather | Tropical Storms | Ski Conditions
United States | Canada | Central America | South America | Asia | Europe | Australia | Africa | Islands

Weather Underground

© Copyright 2017
The Weather Company, LLC